首页
METAR-TAF:

METAR-TAF

机场 :

布里夫拉盖亚尔德, 法国

纬度: 45-02-28N, 经度: 001-28-59E, 海拔: 311米

当前天气观测

该预报发布于20分钟前的16:30 UTC
风速9节,风向东南,在东转东南之间变化
温度 38°C
湿度 27%
气压 1017 hPa
能见度10公里或以上
1500米以下无云,无积雨云

METAR: LFSL 261630Z AUTO 14009KT 110V190 CAVOK 38/16 Q1017 NOSIG

时间: 18:50 (16:50 UTC)

预报

该预报发布于2小时和50分钟前的14:00 UTC
预报有效从26日的 15点(UTC)到 26日的 24点(UTC)
风速10节,风向东转东南
能见度10公里或以上
1500米以下无云,无积雨云

TAF: LFSL 261400Z 2615/2624 12010KT CAVOK

超过4000个机场的气象观测和天气预报(METAR&TAF报告)。

可查询的气象台以黄色和红色小点在地图上表示。

将鼠标移到小点上方,可查看气象台名称。

然后点击查看天气观测和预报。

如需切换地图:点击带黑十字的绿色按钮放大地图;点击带横线的绿色按钮缩小地图;或者点击绿色箭头查看邻近地区的地图。


METAR-TAF: